createdAt,value
2023-01-04T00:02:10.872Z,27.00
2023-01-04T00:04:39.328Z,26.50
2023-01-04T00:07:07.928Z,26.40
2023-01-04T00:09:36.376Z,26.20
2023-01-04T00:12:04.851Z,26.30
2023-01-04T00:14:33.167Z,26.60
2023-01-04T00:17:01.606Z,26.70
2023-01-04T00:19:29.837Z,26.60
2023-01-04T00:21:58.079Z,26.20
2023-01-04T00:24:26.442Z,26.10
2023-01-04T00:26:54.671Z,26.00
2023-01-04T00:29:24.177Z,26.00
2023-01-04T00:31:52.564Z,26.30
2023-01-04T00:34:20.977Z,26.50
2023-01-04T00:36:49.497Z,26.30
2023-01-04T00:39:18.163Z,26.00
2023-01-04T00:42:00.101Z,25.90
2023-01-04T00:44:30.068Z,25.90
2023-01-04T00:46:59.301Z,26.10
2023-01-04T00:49:28.191Z,26.40
2023-01-04T00:51:56.742Z,26.10
2023-01-04T00:54:25.017Z,25.80
2023-01-04T00:56:53.521Z,25.70
2023-01-04T00:59:22.705Z,25.60
2023-01-04T01:01:52.124Z,25.80
2023-01-04T01:04:23.249Z,26.00
2023-01-04T01:06:53.067Z,26.20
2023-01-04T01:09:21.989Z,25.90
2023-01-04T01:11:50.853Z,25.70
2023-01-04T01:14:25.182Z,25.60
2023-01-04T01:16:56.479Z,25.50
2023-01-04T01:19:27.280Z,25.80
2023-01-04T01:21:55.993Z,26.00
2023-01-04T01:24:24.320Z,25.90
2023-01-04T01:26:52.804Z,25.70
2023-01-04T01:29:20.997Z,25.60
2023-01-04T01:31:49.506Z,25.50
2023-01-04T01:34:17.787Z,25.60
2023-01-04T01:36:45.943Z,25.90
2023-01-04T01:39:14.618Z,26.00
2023-01-04T01:41:43.013Z,25.70
2023-01-04T01:44:14.456Z,25.50
2023-01-04T01:46:53.014Z,25.30
2023-01-04T01:49:30.506Z,25.20
2023-01-04T01:52:02.459Z,25.40
2023-01-04T01:54:36.262Z,25.70
2023-01-04T01:57:08.195Z,25.70
2023-01-04T01:59:39.219Z,25.40
2023-01-04T02:02:07.766Z,25.20
2023-01-04T02:04:38.132Z,24.90
2023-01-04T02:07:07.391Z,24.90
2023-01-04T02:09:36.979Z,25.00
2023-01-04T02:12:05.592Z,25.10
2023-01-04T02:14:33.921Z,25.20
2023-01-04T02:17:15.767Z,24.90
2023-01-04T02:20:20.681Z,24.80
2023-01-04T02:23:25.945Z,24.80
2023-01-04T02:26:33.078Z,24.80
2023-01-04T02:29:46.031Z,25.10
2023-01-04T02:32:21.365Z,25.10
2023-01-04T02:35:00.847Z,24.90
2023-01-04T02:37:58.141Z,24.80
2023-01-04T02:40:57.358Z,24.70
2023-01-04T02:43:31.155Z,24.80
2023-01-04T02:46:06.601Z,25.00
2023-01-04T02:48:39.652Z,25.20
2023-01-04T02:51:36.317Z,24.80
2023-01-04T02:54:25.806Z,24.70
2023-01-04T02:57:48.243Z,24.60
2023-01-04T03:00:29.897Z,24.60
2023-01-04T03:03:04.177Z,24.90
2023-01-04T03:05:48.420Z,25.10
2023-01-04T03:08:28.852Z,25.00
2023-01-04T03:11:12.533Z,24.70
2023-01-04T03:13:44.978Z,24.60
2023-01-04T03:16:24.847Z,24.60
2023-01-04T03:18:57.033Z,24.70
2023-01-04T03:21:27.852Z,25.00
2023-01-04T03:23:59.541Z,25.10
2023-01-04T03:26:38.036Z,24.90
2023-01-04T03:29:19.817Z,24.70
2023-01-04T03:31:59.223Z,24.50
2023-01-04T03:34:28.590Z,24.40
2023-01-04T03:37:00.982Z,24.40
2023-01-04T03:39:29.226Z,24.70
2023-01-04T03:42:08.864Z,24.80
2023-01-04T03:45:04.328Z,24.60
2023-01-04T03:48:11.920Z,24.50
2023-01-04T03:50:48.397Z,24.30
2023-01-04T03:53:17.118Z,24.20
2023-01-04T03:55:46.650Z,24.40
2023-01-04T03:58:15.583Z,24.70
2023-01-04T04:00:43.915Z,24.40
2023-01-04T04:03:12.280Z,24.20
2023-01-04T04:05:43.583Z,24.10
2023-01-04T04:08:11.894Z,24.10
2023-01-04T04:10:40.075Z,24.00
2023-01-04T04:13:08.298Z,24.20
2023-01-04T04:15:36.545Z,24.40
2023-01-04T04:18:04.880Z,24.40
2023-01-04T04:20:33.091Z,24.20
2023-01-04T04:23:01.420Z,24.10
2023-01-04T04:25:29.731Z,24.10
2023-01-04T04:27:58.172Z,24.00
2023-01-04T04:30:26.440Z,24.00
2023-01-04T04:32:54.762Z,24.20
2023-01-04T04:35:22.989Z,24.30
2023-01-04T04:37:51.133Z,24.20
2023-01-04T04:40:41.056Z,24.10
2023-01-04T04:43:09.779Z,24.00
2023-01-04T04:45:38.176Z,23.90
2023-01-04T04:48:06.593Z,23.90
2023-01-04T04:50:34.842Z,24.00
2023-01-04T04:53:03.145Z,23.90
2023-01-04T04:55:31.199Z,23.70
2023-01-04T04:57:59.563Z,23.60
2023-01-04T05:00:27.800Z,23.50
2023-01-04T05:02:59.821Z,23.60
2023-01-04T05:05:28.676Z,23.60
2023-01-04T05:07:56.751Z,23.70
2023-01-04T05:10:25.175Z,23.80
2023-01-04T05:12:57.790Z,23.80
2023-01-04T05:15:39.951Z,23.70
2023-01-04T05:18:09.923Z,23.60
2023-01-04T05:20:38.149Z,23.40
2023-01-04T05:23:08.168Z,23.40
2023-01-04T05:25:36.378Z,23.40
2023-01-04T05:28:05.066Z,23.50
2023-01-04T05:30:33.293Z,23.50
2023-01-04T05:33:02.278Z,23.40
2023-01-04T05:35:30.568Z,23.30
2023-01-04T05:37:59.139Z,23.20
2023-01-04T05:40:27.526Z,23.10
2023-01-04T05:42:55.947Z,23.20
2023-01-04T05:45:24.406Z,23.30
2023-01-04T05:47:53.733Z,23.30
2023-01-04T05:50:23.438Z,23.20
2023-01-04T05:52:52.375Z,23.10
2023-01-04T05:55:20.874Z,23.10
2023-01-04T05:57:49.267Z,23.10
2023-01-04T06:00:17.997Z,23.10
2023-01-04T06:02:46.612Z,23.40
2023-01-04T06:05:14.942Z,23.70
2023-01-04T06:07:43.329Z,23.50
2023-01-04T06:10:13.195Z,23.30
2023-01-04T06:12:42.283Z,23.20
2023-01-04T06:15:12.070Z,23.10
2023-01-04T06:17:40.593Z,23.10
2023-01-04T06:20:10.591Z,23.10
2023-01-04T06:22:39.591Z,23.30
2023-01-04T06:25:08.510Z,23.50
2023-01-04T06:27:37.054Z,23.40
2023-01-04T06:30:05.784Z,23.30
2023-01-04T06:32:34.001Z,23.20
2023-01-04T06:35:02.631Z,23.20
2023-01-04T06:37:30.842Z,23.10
2023-01-04T06:39:58.976Z,23.10
2023-01-04T06:42:27.295Z,23.10
2023-01-04T06:44:55.478Z,23.50
2023-01-04T06:47:23.717Z,23.60
2023-01-04T06:49:52.229Z,23.50
2023-01-04T06:52:20.437Z,23.30
2023-01-04T06:54:48.625Z,23.20
2023-01-04T06:57:16.771Z,23.20
2023-01-04T06:59:45.022Z,23.00
2023-01-04T07:02:17.150Z,23.10
2023-01-04T07:04:45.628Z,23.40
2023-01-04T07:07:13.813Z,23.40
2023-01-04T07:09:42.121Z,23.20
2023-01-04T07:12:10.373Z,23.10
2023-01-04T07:14:38.633Z,23.10
2023-01-04T07:17:06.783Z,23.30
2023-01-04T07:19:35.001Z,23.40
2023-01-04T07:22:03.397Z,23.40
2023-01-04T07:24:31.639Z,23.40
2023-01-04T07:27:03.340Z,23.40
2023-01-04T07:29:31.722Z,23.50
2023-01-04T07:31:59.917Z,23.40
2023-01-04T07:34:28.615Z,23.70
2023-01-04T07:36:56.954Z,23.90
2023-01-04T07:39:25.245Z,23.80
2023-01-04T07:41:53.449Z,23.90
2023-01-04T07:44:24.652Z,24.00
2023-01-04T07:46:52.978Z,24.00
2023-01-04T07:49:21.515Z,24.30
2023-01-04T07:51:51.033Z,24.50
2023-01-04T07:54:19.987Z,25.00
2023-01-04T07:56:48.708Z,24.90
2023-01-04T07:59:18.869Z,24.90
2023-01-04T08:01:48.006Z,25.10
2023-01-04T08:04:17.386Z,25.40
2023-01-04T08:06:46.034Z,25.70
2023-01-04T08:09:14.690Z,26.00
2023-01-04T08:11:42.859Z,26.80
2023-01-04T08:14:11.819Z,27.60
2023-01-04T08:16:42.302Z,28.70
2023-01-04T08:19:17.100Z,28.70
2023-01-04T08:21:46.166Z,29.10
2023-01-04T08:24:16.727Z,30.80
2023-01-04T08:26:45.835Z,31.50
2023-01-04T08:29:14.553Z,32.40
2023-01-04T08:31:42.975Z,32.50
2023-01-04T08:34:11.519Z,32.90
2023-01-04T08:36:48.920Z,33.00
2023-01-04T08:39:17.671Z,33.40
2023-01-04T08:41:58.264Z,33.80
2023-01-04T08:44:29.688Z,34.60
2023-01-04T08:46:58.031Z,35.90
2023-01-04T08:49:26.318Z,35.40
2023-01-04T08:51:54.607Z,35.70
2023-01-04T08:54:22.868Z,35.30
2023-01-04T08:56:51.358Z,35.70
2023-01-04T08:59:19.548Z,35.60
2023-01-04T09:01:47.935Z,35.70
2023-01-04T09:04:16.396Z,34.90
2023-01-04T09:06:44.672Z,35.20
2023-01-04T09:09:13.012Z,34.90
2023-01-04T09:11:41.427Z,33.20
2023-01-04T09:14:10.689Z,32.10
2023-01-04T09:16:39.234Z,31.10
2023-01-04T09:19:07.954Z,30.50
2023-01-04T09:21:36.376Z,30.30
2023-01-04T09:24:05.056Z,30.20
2023-01-04T09:26:33.332Z,30.40
2023-01-04T09:29:01.518Z,30.30
2023-01-04T09:31:30.021Z,30.00
2023-01-04T09:34:16.888Z,29.80
2023-01-04T09:36:49.443Z,29.90
2023-01-04T09:39:23.162Z,29.80
2023-01-04T09:41:58.546Z,29.70
2023-01-04T09:44:39.943Z,29.70
2023-01-04T09:47:22.877Z,29.70
2023-01-04T09:49:57.293Z,29.50
2023-01-04T09:52:48.980Z,29.50
2023-01-04T09:55:37.174Z,29.70
2023-01-04T09:58:24.026Z,29.40
2023-01-04T10:01:01.404Z,29.60
2023-01-04T10:03:34.841Z,29.60
2023-01-04T10:06:04.050Z,29.40
2023-01-04T10:08:32.631Z,29.70
2023-01-04T10:11:13.163Z,29.80
2023-01-04T10:14:14.752Z,29.70
2023-01-04T10:23:15.637Z,30.20
2023-01-04T10:25:57.633Z,29.80
2023-01-04T10:28:37.582Z,30.00
2023-01-04T10:31:40.695Z,29.70
2023-01-04T10:34:24.804Z,29.90
2023-01-04T10:37:00.794Z,30.50
2023-01-04T10:39:33.384Z,30.00
2023-01-04T10:42:15.641Z,30.30
2023-01-04T10:44:50.302Z,30.40
2023-01-04T10:47:33.212Z,30.30
2023-01-04T10:50:09.288Z,30.10
2023-01-04T10:52:56.210Z,30.00
2023-01-04T10:55:32.500Z,30.20
2023-01-04T10:58:20.432Z,30.30
2023-01-04T11:01:15.488Z,29.60
2023-01-04T11:03:49.021Z,29.50
2023-01-04T11:06:22.931Z,29.90
2023-01-04T11:09:35.006Z,30.40
2023-01-04T11:12:04.054Z,30.70
2023-01-04T11:14:37.221Z,31.10
2023-01-04T11:17:09.232Z,30.60
2023-01-04T11:19:37.764Z,30.40
2023-01-04T11:22:29.258Z,30.30
2023-01-04T11:28:42.659Z,31.00
2023-01-04T11:31:19.993Z,30.60
2023-01-04T11:34:00.491Z,30.70
2023-01-04T11:36:43.328Z,30.70
2023-01-04T11:39:23.097Z,30.60
2023-01-04T11:42:03.777Z,30.60
2023-01-04T11:44:33.963Z,31.10
2023-01-04T11:47:23.397Z,31.20
2023-01-04T11:49:53.572Z,31.00
2023-01-04T11:52:39.872Z,30.80
2023-01-04T11:55:28.394Z,30.70
2023-01-04T11:58:15.358Z,30.80
2023-01-04T12:00:55.529Z,30.90
2023-01-04T12:03:37.077Z,30.60
2023-01-04T12:06:34.535Z,30.90
2023-01-04T12:09:03.194Z,30.90
2023-01-04T12:12:00.610Z,30.90
2023-01-04T12:14:36.981Z,30.90
2023-01-04T12:17:16.348Z,31.30
2023-01-04T12:19:46.293Z,30.90
2023-01-04T12:22:41.151Z,31.20
2023-01-04T12:25:26.971Z,31.10
2023-01-04T12:27:55.834Z,30.80
2023-01-04T12:30:41.937Z,30.90
2023-01-04T12:33:38.147Z,31.20
2023-01-04T12:36:18.243Z,31.40
2023-01-04T12:38:55.734Z,31.60
2023-01-04T12:41:33.908Z,31.40
2023-01-04T12:44:04.024Z,31.40
2023-01-04T12:46:32.386Z,31.50
2023-01-04T12:49:20.573Z,31.40
2023-01-04T12:52:20.439Z,31.90
2023-01-04T12:54:57.762Z,32.20
2023-01-04T12:57:30.663Z,31.30
2023-01-04T13:00:11.852Z,31.10
2023-01-04T13:02:45.150Z,31.30
2023-01-04T13:08:13.237Z,31.70
2023-01-04T13:10:44.348Z,32.10
2023-01-04T13:13:18.367Z,32.00
2023-01-04T13:16:11.085Z,31.90
2023-01-04T13:18:56.361Z,31.90
2023-01-04T13:21:52.422Z,31.90
2023-01-04T13:24:34.765Z,31.80
2023-01-04T13:27:08.014Z,31.90
2023-01-04T13:29:37.025Z,32.30
2023-01-04T13:32:23.736Z,32.40
2023-01-04T13:34:55.037Z,32.00
2023-01-04T13:37:34.055Z,31.90
2023-01-04T13:40:17.432Z,31.50
2023-01-04T13:42:53.907Z,31.60
2023-01-04T13:45:28.340Z,31.90
2023-01-04T13:48:05.876Z,32.30
2023-01-04T13:50:39.715Z,31.80
2023-01-04T13:53:18.205Z,31.50
2023-01-04T13:55:54.453Z,31.40
2023-01-04T13:58:28.404Z,31.30
2023-01-04T14:01:05.515Z,31.80
2023-01-04T14:03:48.305Z,31.90
2023-01-04T14:06:28.011Z,32.00
2023-01-04T14:09:11.819Z,31.60
2023-01-04T14:11:49.769Z,31.40
2023-01-04T14:14:36.321Z,31.40
2023-01-04T14:17:14.742Z,31.60
2023-01-04T14:19:50.472Z,31.40
2023-01-04T14:22:24.889Z,31.40
2023-01-04T14:25:31.437Z,31.10
2023-01-04T14:28:44.857Z,31.00
2023-01-04T14:31:21.839Z,31.10
2023-01-04T14:33:52.680Z,31.30
2023-01-04T14:36:30.526Z,31.40
2023-01-04T14:39:08.077Z,31.10
2023-01-04T14:41:38.352Z,31.10
2023-01-04T14:44:19.098Z,31.30
2023-01-04T14:46:55.173Z,31.30
2023-01-04T14:49:24.039Z,31.60
2023-01-04T14:52:01.028Z,32.00
2023-01-04T14:54:30.551Z,31.70
2023-01-04T14:56:59.694Z,31.00
2023-01-04T14:59:28.146Z,30.90
2023-01-04T15:01:57.897Z,31.00
2023-01-04T15:04:26.422Z,31.40
2023-01-04T15:07:00.458Z,31.90
2023-01-04T15:09:30.230Z,31.70
2023-01-04T15:11:58.763Z,31.30
2023-01-04T15:14:27.230Z,31.10
2023-01-04T15:16:55.588Z,31.20
2023-01-04T15:19:23.820Z,31.40
2023-01-04T15:21:51.999Z,31.50
2023-01-04T15:24:20.450Z,31.30
2023-01-04T15:26:48.778Z,31.10
2023-01-04T15:29:17.074Z,31.20
2023-01-04T15:31:45.633Z,31.00
2023-01-04T15:34:17.036Z,31.20
2023-01-04T15:36:45.553Z,31.60
2023-01-04T15:39:14.966Z,31.90
2023-01-04T15:41:43.252Z,31.60
2023-01-04T15:44:11.727Z,30.80
2023-01-04T15:46:40.100Z,30.70
2023-01-04T15:49:15.034Z,30.80
2023-01-04T15:51:45.957Z,31.10
2023-01-04T15:54:14.828Z,31.60
2023-01-04T15:56:43.113Z,31.40
2023-01-04T15:59:11.401Z,31.00
2023-01-04T16:01:40.200Z,30.60
2023-01-04T16:04:08.567Z,30.70
2023-01-04T16:06:36.770Z,30.70
2023-01-04T16:09:06.017Z,31.00
2023-01-04T16:11:34.839Z,31.00
2023-01-04T16:14:03.659Z,31.10
2023-01-04T16:16:31.978Z,30.70
2023-01-04T16:19:01.479Z,30.50
2023-01-04T16:21:29.712Z,30.50
2023-01-04T16:24:06.954Z,30.90
2023-01-04T16:26:41.478Z,31.00
2023-01-04T16:29:12.548Z,31.10
2023-01-04T16:31:40.992Z,30.80
2023-01-04T16:34:12.718Z,30.40
2023-01-04T16:36:40.782Z,30.30
2023-01-04T16:39:09.366Z,30.50
2023-01-04T16:41:37.736Z,30.90
2023-01-04T16:44:06.753Z,30.70
2023-01-04T16:46:37.789Z,30.40
2023-01-04T16:49:08.595Z,30.30
2023-01-04T16:51:39.593Z,30.30
2023-01-04T16:54:13.129Z,30.20
2023-01-04T16:56:42.858Z,30.50
2023-01-04T16:59:16.040Z,30.80
2023-01-04T17:01:51.038Z,30.60
2023-01-04T17:04:20.141Z,30.40
2023-01-04T17:06:48.693Z,30.10
2023-01-04T17:09:19.318Z,29.90
2023-01-04T17:12:36.463Z,30.20
2023-01-04T17:14:36.581Z,30.40
2023-01-04T17:17:04.816Z,30.50
2023-01-04T17:19:32.922Z,30.00
2023-01-04T17:22:01.267Z,29.70
2023-01-04T17:24:29.646Z,29.70
2023-01-04T17:26:57.867Z,30.10
2023-01-04T17:29:25.998Z,30.10
2023-01-04T17:31:54.438Z,30.20
2023-01-04T17:34:23.472Z,30.30
2023-01-04T17:36:51.857Z,29.90
2023-01-04T17:39:20.711Z,29.60
2023-01-04T17:41:48.904Z,29.60
2023-01-04T17:44:17.353Z,30.00
2023-01-04T17:46:45.603Z,30.20
2023-01-04T17:49:32.212Z,30.00
2023-01-04T17:52:01.015Z,29.50
2023-01-04T17:54:29.263Z,29.30
2023-01-04T17:56:57.618Z,29.50
2023-01-04T17:59:25.856Z,29.60
2023-01-04T18:01:54.376Z,29.70
2023-01-04T18:04:22.560Z,29.60
2023-01-04T18:06:50.903Z,29.30
2023-01-04T18:09:22.191Z,29.20
2023-01-04T18:11:52.650Z,29.10
2023-01-04T18:14:20.750Z,29.50
2023-01-04T18:16:49.011Z,29.60
2023-01-04T18:19:17.304Z,29.40
2023-01-04T18:21:45.492Z,29.20
2023-01-04T18:24:35.587Z,29.10
2023-01-04T18:27:20.937Z,28.90
2023-01-04T18:29:51.207Z,29.30
2023-01-04T18:32:19.592Z,29.40
2023-01-04T18:34:47.967Z,29.30
2023-01-04T18:37:16.335Z,28.90
2023-01-04T18:39:45.018Z,28.70
2023-01-04T18:42:13.317Z,28.50
2023-01-04T18:44:47.908Z,28.80
2023-01-04T18:47:21.299Z,29.10
2023-01-04T18:49:50.711Z,29.10
2023-01-04T18:52:19.932Z,28.90
2023-01-04T18:54:48.670Z,28.60
2023-01-04T18:57:17.072Z,28.40
2023-01-04T18:59:45.397Z,28.50
2023-01-04T19:02:19.425Z,28.80
2023-01-04T19:04:47.943Z,28.90
2023-01-04T19:07:16.273Z,28.80
2023-01-04T19:09:44.864Z,28.60
2023-01-04T19:12:15.180Z,28.40
2023-01-04T19:14:43.486Z,28.30
2023-01-04T19:17:11.914Z,28.70
2023-01-04T19:19:40.148Z,28.90
2023-01-04T19:22:08.316Z,29.00
2023-01-04T19:24:36.656Z,28.60
2023-01-04T19:27:04.900Z,28.30
2023-01-04T19:29:33.639Z,28.30
2023-01-04T19:32:02.384Z,28.40
2023-01-04T19:34:30.634Z,28.80
2023-01-04T19:36:59.067Z,28.90
2023-01-04T19:39:27.420Z,28.70
2023-01-04T19:41:55.888Z,28.40
2023-01-04T19:44:24.199Z,28.30
2023-01-04T19:46:52.316Z,28.30
2023-01-04T19:49:20.629Z,28.50
2023-01-04T19:51:49.939Z,28.70
2023-01-04T19:54:24.786Z,28.60
2023-01-04T19:56:54.480Z,28.40
2023-01-04T19:59:23.245Z,28.20
2023-01-04T20:01:51.920Z,28.10
2023-01-04T20:04:20.601Z,28.20
2023-01-04T20:06:48.831Z,28.60
2023-01-04T20:09:17.139Z,28.70
2023-01-04T20:11:45.700Z,28.70
2023-01-04T20:14:13.976Z,28.30
2023-01-04T20:16:42.241Z,28.10
2023-01-04T20:19:10.646Z,28.20
2023-01-04T20:21:38.910Z,28.50
2023-01-04T20:24:08.375Z,28.90
2023-01-04T20:26:37.387Z,28.60
2023-01-04T20:29:06.150Z,28.30
2023-01-04T20:31:35.428Z,28.10
2023-01-04T20:34:03.750Z,28.10
2023-01-04T20:36:31.971Z,28.40
2023-01-04T20:39:03.024Z,28.70
2023-01-04T20:41:31.392Z,28.50
2023-01-04T20:44:00.560Z,28.10
2023-01-04T20:46:31.328Z,28.00
2023-01-04T20:49:03.275Z,27.90
2023-01-04T20:51:31.187Z,28.20
2023-01-04T20:54:00.019Z,28.50
2023-01-04T20:56:30.821Z,28.60
2023-01-04T20:58:59.122Z,28.20
2023-01-04T21:01:35.263Z,27.90
2023-01-04T21:04:03.688Z,27.80
2023-01-04T21:06:34.137Z,28.20
2023-01-04T21:09:02.743Z,28.50
2023-01-04T21:11:30.799Z,28.50
2023-01-04T21:14:01.194Z,28.20
2023-01-04T21:16:29.441Z,28.00
2023-01-04T21:18:58.219Z,27.80
2023-01-04T21:21:26.604Z,27.90
2023-01-04T21:23:58.073Z,28.20
2023-01-04T21:26:26.796Z,28.40
2023-01-04T21:28:54.977Z,28.20
2023-01-04T21:31:26.136Z,28.00
2023-01-04T21:33:55.166Z,27.80
2023-01-04T21:36:28.371Z,27.90
2023-01-04T21:38:58.711Z,28.30
2023-01-04T21:41:27.514Z,28.40
2023-01-04T21:43:58.470Z,28.20
2023-01-04T21:46:27.355Z,28.00
2023-01-04T21:49:00.578Z,27.70
2023-01-04T21:51:30.390Z,27.70
2023-01-04T21:53:59.167Z,27.90
2023-01-04T21:56:28.000Z,28.20
2023-01-04T21:58:56.444Z,28.30
2023-01-04T22:01:34.545Z,28.10
2023-01-04T22:04:04.494Z,27.90
2023-01-04T22:06:33.010Z,27.70
2023-01-04T22:09:01.308Z,27.70
2023-01-04T22:11:29.895Z,27.90
2023-01-04T22:13:58.101Z,28.20
2023-01-04T22:16:26.432Z,28.30
2023-01-04T22:18:54.655Z,28.00
2023-01-04T22:21:23.955Z,27.80
2023-01-04T22:23:53.703Z,27.70
2023-01-04T22:26:22.063Z,27.90
2023-01-04T22:28:50.257Z,28.30
2023-01-04T22:31:18.467Z,28.30
2023-01-04T22:33:46.815Z,28.00
2023-01-04T22:36:22.243Z,27.70
2023-01-04T22:38:52.738Z,27.60
2023-01-04T22:41:22.790Z,27.50
2023-01-04T22:43:59.051Z,27.60
2023-01-04T22:46:28.856Z,27.70
2023-01-04T22:48:57.522Z,27.80
2023-01-04T22:51:26.774Z,27.50
2023-01-04T22:53:56.616Z,27.40
2023-01-04T22:56:25.739Z,27.20
2023-01-04T22:58:55.874Z,27.10
2023-01-04T23:01:42.592Z,27.20
2023-01-04T23:04:14.689Z,27.10
2023-01-04T23:06:43.120Z,26.80
2023-01-04T23:09:14.432Z,26.50
2023-01-04T23:11:43.853Z,26.30
2023-01-04T23:14:17.735Z,26.20
2023-01-04T23:16:46.217Z,26.50
2023-01-04T23:19:15.034Z,26.60
2023-01-04T23:21:43.725Z,26.50
2023-01-04T23:24:16.041Z,26.20
2023-01-04T23:26:45.402Z,25.90
2023-01-04T23:29:13.880Z,25.80
2023-01-04T23:31:42.417Z,25.90
2023-01-04T23:34:13.189Z,25.90
2023-01-04T23:36:42.566Z,26.00
2023-01-04T23:39:14.895Z,26.00
2023-01-04T23:41:43.629Z,25.90
2023-01-04T23:44:26.755Z,25.80
2023-01-04T23:47:00.908Z,25.80
2023-01-04T23:49:31.514Z,26.00
2023-01-04T23:52:00.642Z,26.10
2023-01-04T23:54:28.975Z,25.90
2023-01-04T23:56:58.056Z,25.90
2023-01-04T23:59:26.480Z,25.70
